sensor_id;sensor_type;location;lat;lon;timestamp;pressure;altitude;pressure_sealevel;temperature;humidity
59493;BME280;45497;43.996;22.876;2023-03-14T00:01:19;101460.72;;;5.66;46.96
59493;BME280;45497;43.996;22.876;2023-03-14T00:03:45;101462.25;;;5.68;46.54
59493;BME280;45497;43.996;22.876;2023-03-14T00:06:12;101452.94;;;5.75;46.25
59493;BME280;45497;43.996;22.876;2023-03-14T00:08:38;101438.56;;;5.80;46.03
59493;BME280;45497;43.996;22.876;2023-03-14T00:11:06;101439.06;;;5.85;45.75
59493;BME280;45497;43.996;22.876;2023-03-14T00:13:31;101438.59;;;5.91;45.81
59493;BME280;45497;43.996;22.876;2023-03-14T00:16:02;101432.97;;;5.84;46.03
59493;BME280;45497;43.996;22.876;2023-03-14T00:18:28;101445.16;;;5.74;46.29
59493;BME280;45497;43.996;22.876;2023-03-14T00:20:53;101446.72;;;5.65;46.86
59493;BME280;45497;43.996;22.876;2023-03-14T00:23:19;101439.44;;;5.58;46.82
59493;BME280;45497;43.996;22.876;2023-03-14T00:25:44;101436.81;;;5.46;46.87
59493;BME280;45497;43.996;22.876;2023-03-14T00:28:09;101436.31;;;5.41;47.34
59493;BME280;45497;43.996;22.876;2023-03-14T00:30:37;101434.28;;;5.33;47.59
59493;BME280;45497;43.996;22.876;2023-03-14T00:33:03;101430.94;;;5.31;47.38
59493;BME280;45497;43.996;22.876;2023-03-14T00:35:28;101429.63;;;5.26;47.50
59493;BME280;45497;43.996;22.876;2023-03-14T00:37:53;101421.97;;;5.11;47.48
59493;BME280;45497;43.996;22.876;2023-03-14T00:40:19;101418.34;;;5.12;47.97
59493;BME280;45497;43.996;22.876;2023-03-14T00:42:44;101411.44;;;5.11;47.65
59493;BME280;45497;43.996;22.876;2023-03-14T00:45:10;101424.09;;;5.17;47.63
59493;BME280;45497;43.996;22.876;2023-03-14T00:47:35;101417.75;;;5.09;47.55
59493;BME280;45497;43.996;22.876;2023-03-14T00:50:01;101408.81;;;5.11;47.40
59493;BME280;45497;43.996;22.876;2023-03-14T00:52:27;101406.03;;;5.13;47.39
59493;BME280;45497;43.996;22.876;2023-03-14T00:54:52;101411.06;;;5.05;47.93
59493;BME280;45497;43.996;22.876;2023-03-14T00:57:18;101415.69;;;4.90;48.25
59493;BME280;45497;43.996;22.876;2023-03-14T00:59:43;101420.66;;;4.70;48.28
59493;BME280;45497;43.996;22.876;2023-03-14T01:02:09;101429.84;;;4.65;48.81
59493;BME280;45497;43.996;22.876;2023-03-14T01:04:34;101430.28;;;4.34;49.35
59493;BME280;45497;43.996;22.876;2023-03-14T01:07:00;101433.25;;;4.30;49.83
59493;BME280;45497;43.996;22.876;2023-03-14T01:09:25;101433.06;;;4.20;49.90
59493;BME280;45497;43.996;22.876;2023-03-14T01:11:50;101431.75;;;4.01;50.69
59493;BME280;45497;43.996;22.876;2023-03-14T01:14:16;101436.00;;;3.91;50.63
59493;BME280;45497;43.996;22.876;2023-03-14T01:16:41;101438.06;;;3.99;50.41
59493;BME280;45497;43.996;22.876;2023-03-14T01:19:07;101425.00;;;4.10;50.40
59493;BME280;45497;43.996;22.876;2023-03-14T01:21:34;101429.22;;;4.13;49.98
59493;BME280;45497;43.996;22.876;2023-03-14T01:24:01;101428.81;;;4.06;50.61
59493;BME280;45497;43.996;22.876;2023-03-14T01:26:29;101428.16;;;4.15;49.80
59493;BME280;45497;43.996;22.876;2023-03-14T01:28:56;101424.84;;;4.00;50.35
59493;BME280;45497;43.996;22.876;2023-03-14T01:31:23;101424.69;;;3.91;50.39
59493;BME280;45497;43.996;22.876;2023-03-14T01:33:49;101421.03;;;3.80;51.05
59493;BME280;45497;43.996;22.876;2023-03-14T01:36:15;101416.13;;;3.63;51.32
59493;BME280;45497;43.996;22.876;2023-03-14T01:38:41;101426.81;;;3.47;51.84
59493;BME280;45497;43.996;22.876;2023-03-14T01:41:08;101431.88;;;3.37;52.09
59493;BME280;45497;43.996;22.876;2023-03-14T01:43:37;101429.47;;;3.34;52.14
59493;BME280;45497;43.996;22.876;2023-03-14T01:48:52;101412.06;;;3.46;51.85
59493;BME280;45497;43.996;22.876;2023-03-14T01:54:40;101396.59;;;3.80;51.13
59493;BME280;45497;43.996;22.876;2023-03-14T01:57:12;101385.66;;;3.86;50.46
59493;BME280;45497;43.996;22.876;2023-03-14T01:59:40;101382.31;;;3.84;50.41
59493;BME280;45497;43.996;22.876;2023-03-14T02:02:09;101382.09;;;3.87;50.67
59493;BME280;45497;43.996;22.876;2023-03-14T02:04:37;101383.03;;;3.86;50.88
59493;BME280;45497;43.996;22.876;2023-03-14T02:07:15;101386.81;;;3.82;50.66
59493;BME280;45497;43.996;22.876;2023-03-14T02:09:42;101379.72;;;3.71;51.17
59493;BME280;45497;43.996;22.876;2023-03-14T02:12:09;101376.69;;;3.64;51.36
59493;BME280;45497;43.996;22.876;2023-03-14T02:14:37;101383.00;;;3.49;52.22
59493;BME280;45497;43.996;22.876;2023-03-14T02:17:04;101372.75;;;3.46;52.48
59493;BME280;45497;43.996;22.876;2023-03-14T02:22:22;101362.34;;;3.57;52.34
59493;BME280;45497;43.996;22.876;2023-03-14T02:25:05;101374.03;;;3.77;51.82
59493;BME280;45497;43.996;22.876;2023-03-14T02:27:34;101363.22;;;4.06;50.91
59493;BME280;45497;43.996;22.876;2023-03-14T02:30:10;101363.28;;;4.17;50.38
59493;BME280;45497;43.996;22.876;2023-03-14T02:32:39;101360.66;;;4.17;50.16
59493;BME280;45497;43.996;22.876;2023-03-14T02:35:09;101363.84;;;4.10;50.67
59493;BME280;45497;43.996;22.876;2023-03-14T02:37:40;101358.91;;;4.05;50.76
59493;BME280;45497;43.996;22.876;2023-03-14T02:40:06;101353.50;;;4.19;50.16
59493;BME280;45497;43.996;22.876;2023-03-14T02:42:34;101358.44;;;4.35;49.93
59493;BME280;45497;43.996;22.876;2023-03-14T02:47:54;101347.78;;;4.14;50.51
59493;BME280;45497;43.996;22.876;2023-03-14T02:50:22;101353.75;;;4.16;50.34
59493;BME280;45497;43.996;22.876;2023-03-14T02:52:49;101354.00;;;4.25;50.07
59493;BME280;45497;43.996;22.876;2023-03-14T02:55:19;101354.31;;;4.44;49.96
59493;BME280;45497;43.996;22.876;2023-03-14T02:57:45;101354.38;;;4.31;49.96
59493;BME280;45497;43.996;22.876;2023-03-14T03:00:10;101364.66;;;4.34;49.62
59493;BME280;45497;43.996;22.876;2023-03-14T03:02:36;101356.06;;;4.32;49.91
59493;BME280;45497;43.996;22.876;2023-03-14T03:05:02;101357.06;;;4.43;49.92
59493;BME280;45497;43.996;22.876;2023-03-14T03:07:27;101353.25;;;4.47;49.51
59493;BME280;45497;43.996;22.876;2023-03-14T03:09:53;101353.91;;;4.37;50.12
59493;BME280;45497;43.996;22.876;2023-03-14T03:12:18;101354.88;;;4.36;49.96
59493;BME280;45497;43.996;22.876;2023-03-14T03:14:43;101346.78;;;4.39;49.45
59493;BME280;45497;43.996;22.876;2023-03-14T03:17:09;101350.50;;;4.48;49.25
59493;BME280;45497;43.996;22.876;2023-03-14T03:19:35;101357.91;;;4.43;49.49
59493;BME280;45497;43.996;22.876;2023-03-14T03:22:00;101374.56;;;4.31;50.26
59493;BME280;45497;43.996;22.876;2023-03-14T03:24:26;101362.84;;;4.24;50.02
59493;BME280;45497;43.996;22.876;2023-03-14T03:26:52;101367.41;;;4.33;49.86
59493;BME280;45497;43.996;22.876;2023-03-14T03:29:18;101377.91;;;4.33;50.11
59493;BME280;45497;43.996;22.876;2023-03-14T03:31:44;101375.59;;;4.28;49.98
59493;BME280;45497;43.996;22.876;2023-03-14T03:34:11;101372.47;;;4.23;50.30
59493;BME280;45497;43.996;22.876;2023-03-14T03:36:37;101372.47;;;4.23;50.55
59493;BME280;45497;43.996;22.876;2023-03-14T03:39:03;101374.56;;;4.31;49.81
59493;BME280;45497;43.996;22.876;2023-03-14T03:41:29;101366.56;;;4.32;49.65
59493;BME280;45497;43.996;22.876;2023-03-14T03:43:55;101367.63;;;4.30;49.41
59493;BME280;45497;43.996;22.876;2023-03-14T03:46:20;101370.63;;;4.36;49.50
59493;BME280;45497;43.996;22.876;2023-03-14T03:48:46;101365.38;;;4.36;49.63
59493;BME280;45497;43.996;22.876;2023-03-14T03:51:13;101364.56;;;4.36;49.58
59493;BME280;45497;43.996;22.876;2023-03-14T03:53:39;101362.88;;;4.35;49.71
59493;BME280;45497;43.996;22.876;2023-03-14T03:56:05;101355.94;;;4.34;49.31
59493;BME280;45497;43.996;22.876;2023-03-14T03:58:31;101359.50;;;4.21;49.63
59493;BME280;45497;43.996;22.876;2023-03-14T04:00:56;101362.66;;;4.14;49.57
59493;BME280;45497;43.996;22.876;2023-03-14T04:03:22;101360.38;;;4.09;49.98
59493;BME280;45497;43.996;22.876;2023-03-14T04:06:01;101366.16;;;4.01;49.90
59493;BME280;45497;43.996;22.876;2023-03-14T04:08:27;101363.44;;;4.03;50.30
59493;BME280;45497;43.996;22.876;2023-03-14T04:11:00;101363.84;;;4.10;49.89
59493;BME280;45497;43.996;22.876;2023-03-14T04:13:26;101356.84;;;3.97;50.08
59493;BME280;45497;43.996;22.876;2023-03-14T04:15:52;101345.19;;;4.01;49.82
59493;BME280;45497;43.996;22.876;2023-03-14T04:18:19;101350.31;;;4.03;49.88
59493;BME280;45497;43.996;22.876;2023-03-14T04:20:45;101350.44;;;4.01;49.74
59493;BME280;45497;43.996;22.876;2023-03-14T04:23:11;101341.16;;;4.09;49.74
59493;BME280;45497;43.996;22.876;2023-03-14T04:25:36;101338.88;;;4.04;49.73
59493;BME280;45497;43.996;22.876;2023-03-14T04:28:02;101342.09;;;3.96;49.90
59493;BME280;45497;43.996;22.876;2023-03-14T04:30:29;101338.75;;;3.94;49.90
59493;BME280;45497;43.996;22.876;2023-03-14T04:32:55;101335.16;;;3.95;49.48
59493;BME280;45497;43.996;22.876;2023-03-14T04:35:20;101333.91;;;3.88;49.66
59493;BME280;45497;43.996;22.876;2023-03-14T04:37:46;101345.22;;;3.64;50.61
59493;BME280;45497;43.996;22.876;2023-03-14T04:40:15;101357.84;;;3.47;51.28
59493;BME280;45497;43.996;22.876;2023-03-14T04:42:40;101348.53;;;3.17;51.80
59493;BME280;45497;43.996;22.876;2023-03-14T04:45:07;101349.19;;;2.95;52.78
59493;BME280;45497;43.996;22.876;2023-03-14T04:47:32;101345.13;;;2.91;52.71
59493;BME280;45497;43.996;22.876;2023-03-14T04:49:58;101359.13;;;2.90;52.91
59493;BME280;45497;43.996;22.876;2023-03-14T04:52:23;101368.06;;;3.00;52.58
59493;BME280;45497;43.996;22.876;2023-03-14T04:54:49;101366.69;;;2.94;52.50
59493;BME280;45497;43.996;22.876;2023-03-14T04:57:14;101373.72;;;2.94;52.47
59493;BME280;45497;43.996;22.876;2023-03-14T04:59:40;101372.56;;;2.98;52.35
59493;BME280;45497;43.996;22.876;2023-03-14T05:02:05;101367.94;;;3.01;52.40
59493;BME280;45497;43.996;22.876;2023-03-14T05:04:30;101370.88;;;3.10;52.06
59493;BME280;45497;43.996;22.876;2023-03-14T05:06:58;101369.31;;;3.20;51.79
59493;BME280;45497;43.996;22.876;2023-03-14T05:09:23;101359.34;;;3.25;51.67
59493;BME280;45497;43.996;22.876;2023-03-14T05:11:49;101359.78;;;3.19;51.74
59493;BME280;45497;43.996;22.876;2023-03-14T05:14:14;101371.09;;;3.19;52.19
59493;BME280;45497;43.996;22.876;2023-03-14T05:16:42;101359.16;;;3.28;51.87
59493;BME280;45497;43.996;22.876;2023-03-14T05:19:07;101346.22;;;3.38;51.63
59493;BME280;45497;43.996;22.876;2023-03-14T05:21:33;101340.66;;;3.42;51.79
59493;BME280;45497;43.996;22.876;2023-03-14T05:23:58;101341.25;;;3.59;51.58
59493;BME280;45497;43.996;22.876;2023-03-14T05:26:24;101334.75;;;3.64;51.04
59493;BME280;45497;43.996;22.876;2023-03-14T05:28:49;101328.22;;;3.70;51.32
59493;BME280;45497;43.996;22.876;2023-03-14T05:31:15;101330.34;;;3.89;50.99
59493;BME280;45497;43.996;22.876;2023-03-14T05:33:40;101323.72;;;3.96;50.90
59493;BME280;45497;43.996;22.876;2023-03-14T05:36:08;101331.63;;;4.08;51.06
59493;BME280;45497;43.996;22.876;2023-03-14T05:38:33;101335.47;;;4.15;50.68
59493;BME280;45497;43.996;22.876;2023-03-14T05:40:59;101336.34;;;4.27;50.51
59493;BME280;45497;43.996;22.876;2023-03-14T05:43:24;101335.44;;;4.39;50.35
59493;BME280;45497;43.996;22.876;2023-03-14T05:45:50;101335.72;;;4.47;50.28
59493;BME280;45497;43.996;22.876;2023-03-14T05:48:15;101332.19;;;4.59;50.42
59493;BME280;45497;43.996;22.876;2023-03-14T05:50:42;101333.50;;;4.65;50.17
59493;BME280;45497;43.996;22.876;2023-03-14T05:53:07;101329.56;;;4.71;50.04
59493;BME280;45497;43.996;22.876;2023-03-14T05:55:33;101334.09;;;4.80;50.08
59493;BME280;45497;43.996;22.876;2023-03-14T05:57:58;101346.88;;;4.73;50.37
59493;BME280;45497;43.996;22.876;2023-03-14T06:00:24;101338.75;;;4.65;49.97
59493;BME280;45497;43.996;22.876;2023-03-14T06:02:49;101345.53;;;4.68;50.66
59493;BME280;45497;43.996;22.876;2023-03-14T06:05:15;101341.16;;;4.68;50.55
59493;BME280;45497;43.996;22.876;2023-03-14T06:07:40;101346.13;;;4.60;50.30
59493;BME280;45497;43.996;22.876;2023-03-14T06:10:06;101337.78;;;4.66;50.32
59493;BME280;45497;43.996;22.876;2023-03-14T06:12:32;101329.56;;;4.82;50.35
59493;BME280;45497;43.996;22.876;2023-03-14T06:14:57;101326.25;;;4.91;49.53
59493;BME280;45497;43.996;22.876;2023-03-14T06:17:23;101327.09;;;5.03;49.40
59493;BME280;45497;43.996;22.876;2023-03-14T06:19:48;101320.75;;;5.06;49.91
59493;BME280;45497;43.996;22.876;2023-03-14T06:22:14;101319.69;;;5.20;49.38
59493;BME280;45497;43.996;22.876;2023-03-14T06:24:41;101331.25;;;5.40;49.02
59493;BME280;45497;43.996;22.876;2023-03-14T06:27:06;101330.06;;;5.55;49.12
59493;BME280;45497;43.996;22.876;2023-03-14T06:29:32;101326.06;;;5.72;48.79
59493;BME280;45497;43.996;22.876;2023-03-14T06:31:57;101319.72;;;5.86;48.75
59493;BME280;45497;43.996;22.876;2023-03-14T06:34:23;101325.06;;;5.96;48.57
59493;BME280;45497;43.996;22.876;2023-03-14T06:36:48;101322.44;;;5.96;48.53
59493;BME280;45497;43.996;22.876;2023-03-14T06:39:14;101328.75;;;6.04;47.98
59493;BME280;45497;43.996;22.876;2023-03-14T06:41:39;101332.09;;;6.06;48.35
59493;BME280;45497;43.996;22.876;2023-03-14T06:44:05;101338.59;;;6.02;48.21
59493;BME280;45497;43.996;22.876;2023-03-14T06:46:30;101319.53;;;6.10;48.42
59493;BME280;45497;43.996;22.876;2023-03-14T06:48:56;101324.75;;;6.21;48.33
59493;BME280;45497;43.996;22.876;2023-03-14T06:51:21;101325.19;;;6.26;47.92
59493;BME280;45497;43.996;22.876;2023-03-14T06:53:47;101323.34;;;6.38;48.11
59493;BME280;45497;43.996;22.876;2023-03-14T06:56:12;101328.69;;;6.48;47.94
59493;BME280;45497;43.996;22.876;2023-03-14T06:58:38;101327.16;;;6.66;47.22
59493;BME280;45497;43.996;22.876;2023-03-14T07:01:03;101336.38;;;6.82;47.22
59493;BME280;45497;43.996;22.876;2023-03-14T07:03:29;101328.59;;;6.80;47.33
59493;BME280;45497;43.996;22.876;2023-03-14T07:05:54;101328.13;;;6.96;47.24
59493;BME280;45497;43.996;22.876;2023-03-14T07:08:20;101327.41;;;7.15;46.87
59493;BME280;45497;43.996;22.876;2023-03-14T07:10:46;101320.34;;;7.25;46.54
59493;BME280;45497;43.996;22.876;2023-03-14T07:13:11;101317.13;;;7.22;46.33
59493;BME280;45497;43.996;22.876;2023-03-14T07:15:37;101319.00;;;7.31;46.52
59493;BME280;45497;43.996;22.876;2023-03-14T07:18:03;101328.47;;;7.43;46.19
59493;BME280;45497;43.996;22.876;2023-03-14T07:20:28;101321.03;;;7.58;46.23
59493;BME280;45497;43.996;22.876;2023-03-14T07:22:54;101311.72;;;7.64;45.63
59493;BME280;45497;43.996;22.876;2023-03-14T07:25:20;101310.91;;;7.73;45.51
59493;BME280;45497;43.996;22.876;2023-03-14T07:27:46;101310.06;;;7.92;45.76
59493;BME280;45497;43.996;22.876;2023-03-14T07:30:13;101296.34;;;7.98;45.57
59493;BME280;45497;43.996;22.876;2023-03-14T07:32:39;101295.91;;;8.03;45.40
59493;BME280;45497;43.996;22.876;2023-03-14T07:35:05;101307.31;;;8.23;44.78
59493;BME280;45497;43.996;22.876;2023-03-14T07:37:31;101318.28;;;8.28;44.08
59493;BME280;45497;43.996;22.876;2023-03-14T07:39:56;101309.09;;;8.22;43.76
59493;BME280;45497;43.996;22.876;2023-03-14T07:42:22;101305.63;;;8.32;44.12
59493;BME280;45497;43.996;22.876;2023-03-14T07:44:47;101297.56;;;8.53;44.04
59493;BME280;45497;43.996;22.876;2023-03-14T07:47:12;101297.41;;;8.64;43.86
59493;BME280;45497;43.996;22.876;2023-03-14T07:49:38;101290.88;;;8.68;44.11
59493;BME280;45497;43.996;22.876;2023-03-14T07:52:04;101284.59;;;8.69;43.89
59493;BME280;45497;43.996;22.876;2023-03-14T07:54:29;101280.72;;;8.73;43.60
59493;BME280;45497;43.996;22.876;2023-03-14T07:56:55;101277.47;;;8.79;43.54
59493;BME280;45497;43.996;22.876;2023-03-14T07:59:20;101260.53;;;9.00;44.39
59493;BME280;45497;43.996;22.876;2023-03-14T08:01:46;101250.84;;;9.46;45.75
59493;BME280;45497;43.996;22.876;2023-03-14T08:04:11;101248.28;;;9.90;45.64
59493;BME280;45497;43.996;22.876;2023-03-14T08:06:37;101238.63;;;10.25;43.07
59493;BME280;45497;43.996;22.876;2023-03-14T08:09:03;101238.53;;;9.73;41.95
59493;BME280;45497;43.996;22.876;2023-03-14T08:11:29;101241.16;;;9.55;41.72
59493;BME280;45497;43.996;22.876;2023-03-14T08:13:54;101234.13;;;9.46;41.43
59493;BME280;45497;43.996;22.876;2023-03-14T08:16:21;101226.34;;;9.44;42.10
59493;BME280;45497;43.996;22.876;2023-03-14T08:18:47;101232.22;;;9.56;41.86
59493;BME280;45497;43.996;22.876;2023-03-14T08:21:13;101218.94;;;9.66;42.12
59493;BME280;45497;43.996;22.876;2023-03-14T08:23:38;101228.09;;;9.71;42.35
59493;BME280;45497;43.996;22.876;2023-03-14T08:26:04;101223.47;;;9.73;41.73
59493;BME280;45497;43.996;22.876;2023-03-14T08:28:29;101219.06;;;9.82;41.74
59493;BME280;45497;43.996;22.876;2023-03-14T08:30:57;101233.28;;;9.99;41.03
59493;BME280;45497;43.996;22.876;2023-03-14T08:33:24;101228.44;;;10.12;41.59
59493;BME280;45497;43.996;22.876;2023-03-14T08:35:53;101224.47;;;10.17;41.18
59493;BME280;45497;43.996;22.876;2023-03-14T08:38:19;101215.41;;;10.19;41.43
59493;BME280;45497;43.996;22.876;2023-03-14T08:40:44;101217.19;;;10.37;41.57
59493;BME280;45497;43.996;22.876;2023-03-14T08:43:10;101206.34;;;10.48;41.93
59493;BME280;45497;43.996;22.876;2023-03-14T08:45:35;101193.13;;;10.56;41.27
59493;BME280;45497;43.996;22.876;2023-03-14T08:48:01;101187.59;;;10.49;41.39
59493;BME280;45497;43.996;22.876;2023-03-14T08:50:26;101177.06;;;10.58;41.28
59493;BME280;45497;43.996;22.876;2023-03-14T08:52:52;101187.78;;;10.82;41.28
59493;BME280;45497;43.996;22.876;2023-03-14T08:55:17;101170.91;;;10.92;41.20
59493;BME280;45497;43.996;22.876;2023-03-14T08:57:46;101183.19;;;11.01;40.61
59493;BME280;45497;43.996;22.876;2023-03-14T09:00:12;101180.88;;;11.14;41.02
59493;BME280;45497;43.996;22.876;2023-03-14T09:02:41;101172.94;;;11.06;40.32
59493;BME280;45497;43.996;22.876;2023-03-14T09:05:08;101172.44;;;11.10;40.82
59493;BME280;45497;43.996;22.876;2023-03-14T09:07:33;101162.81;;;11.09;40.45
59493;BME280;45497;43.996;22.876;2023-03-14T09:09:59;101150.19;;;11.03;39.24
59493;BME280;45497;43.996;22.876;2023-03-14T09:12:25;101158.38;;;11.18;39.73
59493;BME280;45497;43.996;22.876;2023-03-14T09:14:50;101156.72;;;11.25;39.48
59493;BME280;45497;43.996;22.876;2023-03-14T09:17:15;101151.56;;;11.24;38.83
59493;BME280;45497;43.996;22.876;2023-03-14T09:19:41;101145.38;;;11.07;38.96
59493;BME280;45497;43.996;22.876;2023-03-14T09:22:06;101152.88;;;11.20;39.19
59493;BME280;45497;43.996;22.876;2023-03-14T09:24:32;101159.06;;;11.37;38.98
59493;BME280;45497;43.996;22.876;2023-03-14T09:26:57;101149.63;;;11.51;38.49
59493;BME280;45497;43.996;22.876;2023-03-14T09:29:23;101136.47;;;11.57;38.97
59493;BME280;45497;43.996;22.876;2023-03-14T09:31:49;101128.03;;;11.54;38.63
59493;BME280;45497;43.996;22.876;2023-03-14T09:34:15;101105.47;;;11.50;38.64
59493;BME280;45497;43.996;22.876;2023-03-14T09:36:40;101099.84;;;11.53;38.89
59493;BME280;45497;43.996;22.876;2023-03-14T09:39:06;101094.50;;;11.44;38.81
59493;BME280;45497;43.996;22.876;2023-03-14T09:41:37;101079.91;;;11.48;39.09
59493;BME280;45497;43.996;22.876;2023-03-14T09:44:22;101082.06;;;11.45;38.85
59493;BME280;45497;43.996;22.876;2023-03-14T09:46:51;101076.78;;;11.37;39.06
59493;BME280;45497;43.996;22.876;2023-03-14T09:49:28;101077.75;;;11.44;38.97
59493;BME280;45497;43.996;22.876;2023-03-14T09:51:56;101078.25;;;11.47;39.41
59493;BME280;45497;43.996;22.876;2023-03-14T09:57:14;101098.59;;;11.88;39.53
59493;BME280;45497;43.996;22.876;2023-03-14T09:59:43;101096.31;;;11.93;39.00
59493;BME280;45497;43.996;22.876;2023-03-14T10:02:21;101082.38;;;11.66;39.15
59493;BME280;45497;43.996;22.876;2023-03-14T10:04:48;101075.72;;;11.79;39.07
59493;BME280;45497;43.996;22.876;2023-03-14T10:07:16;101065.25;;;11.77;39.19
59493;BME280;45497;43.996;22.876;2023-03-14T10:09:47;101059.44;;;11.90;39.38
59493;BME280;45497;43.996;22.876;2023-03-14T10:12:13;101052.09;;;12.09;39.36
59493;BME280;45497;43.996;22.876;2023-03-14T10:14:51;101048.59;;;12.08;39.15
59493;BME280;45497;43.996;22.876;2023-03-14T10:17:20;101055.53;;;12.26;38.92
59493;BME280;45497;43.996;22.876;2023-03-14T10:19:59;101041.56;;;12.32;39.25
59493;BME280;45497;43.996;22.876;2023-03-14T10:22:29;101042.72;;;12.29;38.48
59493;BME280;45497;43.996;22.876;2023-03-14T10:24:57;101034.72;;;12.37;38.97
59493;BME280;45497;43.996;22.876;2023-03-14T10:27:34;101019.50;;;12.54;38.95
59493;BME280;45497;43.996;22.876;2023-03-14T10:30:06;101030.44;;;12.59;39.06
59493;BME280;45497;43.996;22.876;2023-03-14T10:32:35;101017.25;;;12.66;38.88
59493;BME280;45497;43.996;22.876;2023-03-14T10:35:21;101015.47;;;12.58;38.99
59493;BME280;45497;43.996;22.876;2023-03-14T10:37:55;101017.66;;;12.78;39.19
59493;BME280;45497;43.996;22.876;2023-03-14T10:40:26;101006.22;;;12.77;38.66
59493;BME280;45497;43.996;22.876;2023-03-14T10:42:52;101001.94;;;12.68;38.82
59493;BME280;45497;43.996;22.876;2023-03-14T10:45:35;101002.66;;;12.85;38.61
59493;BME280;45497;43.996;22.876;2023-03-14T10:48:18;100992.59;;;12.95;38.98
59493;BME280;45497;43.996;22.876;2023-03-14T10:50:55;100981.97;;;12.95;38.56
59493;BME280;45497;43.996;22.876;2023-03-14T10:53:21;100976.75;;;13.02;38.27
59493;BME280;45497;43.996;22.876;2023-03-14T10:55:46;100968.34;;;13.13;38.11
59493;BME280;45497;43.996;22.876;2023-03-14T11:00:54;100946.06;;;13.29;38.31
59493;BME280;45497;43.996;22.876;2023-03-14T11:03:23;100939.56;;;13.32;38.12
59493;BME280;45497;43.996;22.876;2023-03-14T11:06:03;100927.50;;;13.21;38.24
59493;BME280;45497;43.996;22.876;2023-03-14T11:08:38;100910.41;;;13.30;38.33
59493;BME280;45497;43.996;22.876;2023-03-14T11:14:03;100900.91;;;13.51;37.69
59493;BME280;45497;43.996;22.876;2023-03-14T11:19:35;100882.06;;;13.67;37.58
59493;BME280;45497;43.996;22.876;2023-03-14T11:22:21;100875.38;;;13.56;37.26
59493;BME280;45497;43.996;22.876;2023-03-14T11:30:47;100854.75;;;13.80;37.40
59493;BME280;45497;43.996;22.876;2023-03-14T11:33:27;100852.13;;;14.02;37.30
59493;BME280;45497;43.996;22.876;2023-03-14T11:36:06;100841.56;;;14.15;37.09
59493;BME280;45497;43.996;22.876;2023-03-14T11:41:00;100833.97;;;14.12;36.64
59493;BME280;45497;43.996;22.876;2023-03-14T11:43:35;100822.03;;;14.08;36.55
59493;BME280;45497;43.996;22.876;2023-03-14T11:46:13;100824.13;;;14.12;36.57
59493;BME280;45497;43.996;22.876;2023-03-14T11:49:01;100820.50;;;13.99;36.57
59493;BME280;45497;43.996;22.876;2023-03-14T11:51:29;100810.28;;;14.02;36.41
59493;BME280;45497;43.996;22.876;2023-03-14T11:57:05;100795.34;;;14.29;35.89
59493;BME280;45497;43.996;22.876;2023-03-14T12:02:12;100783.94;;;14.36;35.68
59493;BME280;45497;43.996;22.876;2023-03-14T12:07:32;100767.25;;;14.55;35.18
59493;BME280;45497;43.996;22.876;2023-03-14T12:10:03;100759.72;;;14.59;35.03
59493;BME280;45497;43.996;22.876;2023-03-14T12:12:29;100757.06;;;14.59;34.67
59493;BME280;45497;43.996;22.876;2023-03-14T12:14:59;100744.16;;;14.62;34.76
59493;BME280;45497;43.996;22.876;2023-03-14T12:17:35;100741.22;;;14.57;33.85
59493;BME280;45497;43.996;22.876;2023-03-14T12:22:42;100722.41;;;14.65;33.88
59493;BME280;45497;43.996;22.876;2023-03-14T12:27:46;100713.31;;;14.95;33.78
59493;BME280;45497;43.996;22.876;2023-03-14T12:35:47;100700.03;;;15.08;33.17
59493;BME280;45497;43.996;22.876;2023-03-14T12:43:38;100674.16;;;15.15;33.04
59493;BME280;45497;43.996;22.876;2023-03-14T12:46:24;100677.28;;;15.25;31.97
59493;BME280;45497;43.996;22.876;2023-03-14T12:49:04;100655.28;;;15.30;31.76
59493;BME280;45497;43.996;22.876;2023-03-14T12:51:36;100656.97;;;15.38;31.63
59493;BME280;45497;43.996;22.876;2023-03-14T12:54:21;100655.31;;;15.37;31.59
59493;BME280;45497;43.996;22.876;2023-03-14T12:59:33;100634.16;;;15.42;31.86
59493;BME280;45497;43.996;22.876;2023-03-14T13:04:42;100626.56;;;15.45;31.63
59493;BME280;45497;43.996;22.876;2023-03-14T13:07:31;100614.66;;;15.55;32.07
59493;BME280;45497;43.996;22.876;2023-03-14T13:12:30;100604.38;;;15.52;32.05
59493;BME280;45497;43.996;22.876;2023-03-14T13:15:00;100598.00;;;15.59;31.89
59493;BME280;45497;43.996;22.876;2023-03-14T13:17:33;100592.25;;;15.69;32.25
59493;BME280;45497;43.996;22.876;2023-03-14T13:20:09;100584.44;;;15.61;32.00
59493;BME280;45497;43.996;22.876;2023-03-14T13:22:37;100583.22;;;15.70;31.77
59493;BME280;45497;43.996;22.876;2023-03-14T13:25:10;100577.03;;;15.70;31.98
59493;BME280;45497;43.996;22.876;2023-03-14T13:27:36;100569.84;;;15.63;31.35
59493;BME280;45497;43.996;22.876;2023-03-14T13:30:13;100552.78;;;15.64;31.56
59493;BME280;45497;43.996;22.876;2023-03-14T13:32:42;100554.81;;;15.82;32.97
59493;BME280;45497;43.996;22.876;2023-03-14T13:35:17;100555.03;;;15.88;32.06
59493;BME280;45497;43.996;22.876;2023-03-14T13:37:43;100536.50;;;15.93;31.95
59493;BME280;45497;43.996;22.876;2023-03-14T13:40:20;100547.81;;;15.88;31.70
59493;BME280;45497;43.996;22.876;2023-03-14T13:42:45;100542.66;;;16.00;32.22
59493;BME280;45497;43.996;22.876;2023-03-14T13:45:13;100536.69;;;16.04;31.58
59493;BME280;45497;43.996;22.876;2023-03-14T13:47:39;100526.22;;;16.03;31.45
59493;BME280;45497;43.996;22.876;2023-03-14T13:50:12;100524.16;;;16.05;31.34
59493;BME280;45497;43.996;22.876;2023-03-14T13:52:38;100512.78;;;16.16;31.39